sensor_id;sensor_type;location;lat;lon;timestamp;pressure;altitude;pressure_sealevel;temperature;humidity
77161;BME280;66135;0.000;0.000;2023-04-12T00:02:21;100454.91;;;19.03;58.65
77161;BME280;66135;0.000;0.000;2023-04-12T00:04:46;100447.41;;;19.05;58.67
77161;BME280;66135;0.000;0.000;2023-04-12T00:07:20;100437.75;;;19.02;58.61
77161;BME280;66135;0.000;0.000;2023-04-12T00:09:45;100432.34;;;19.02;58.66
77161;BME280;66135;0.000;0.000;2023-04-12T00:12:11;100425.88;;;19.03;58.53
77161;BME280;66135;0.000;0.000;2023-04-12T00:14:36;100420.47;;;19.03;58.55
77161;BME280;66135;0.000;0.000;2023-04-12T00:17:01;100408.09;;;19.01;58.63
77161;BME280;66135;0.000;0.000;2023-04-12T00:19:27;100396.78;;;18.97;58.77
77161;BME280;66135;0.000;0.000;2023-04-12T00:21:55;100405.38;;;19.01;58.74
77161;BME280;66135;0.000;0.000;2023-04-12T00:24:21;100388.44;;;18.99;58.59
77161;BME280;66135;0.000;0.000;2023-04-12T00:26:46;100379.63;;;18.97;58.79
77161;BME280;66135;0.000;0.000;2023-04-12T00:29:12;100377.97;;;18.96;58.61
77161;BME280;66135;0.000;0.000;2023-04-12T00:31:37;100362.09;;;18.93;58.69
77161;BME280;66135;0.000;0.000;2023-04-12T00:34:02;100350.38;;;18.92;58.73
77161;BME280;66135;0.000;0.000;2023-04-12T00:36:28;100353.47;;;18.89;58.79
77161;BME280;66135;0.000;0.000;2023-04-12T00:38:53;100347.19;;;18.89;58.46
77161;BME280;66135;0.000;0.000;2023-04-12T00:41:19;100331.56;;;18.91;58.49
77161;BME280;66135;0.000;0.000;2023-04-12T00:43:45;100328.00;;;18.90;58.48
77161;BME280;66135;0.000;0.000;2023-04-12T00:46:11;100328.00;;;18.90;58.37
77161;BME280;66135;0.000;0.000;2023-04-12T00:48:37;100317.34;;;18.89;58.49
77161;BME280;66135;0.000;0.000;2023-04-12T00:51:05;100315.84;;;18.86;58.69
77161;BME280;66135;0.000;0.000;2023-04-12T00:53:32;100308.56;;;18.87;58.49
77161;BME280;66135;0.000;0.000;2023-04-12T00:55:58;100302.28;;;18.86;58.39
77161;BME280;66135;0.000;0.000;2023-04-12T00:58:23;100294.13;;;18.86;58.53
77161;BME280;66135;0.000;0.000;2023-04-12T01:00:49;100279.75;;;18.86;58.54
77161;BME280;66135;0.000;0.000;2023-04-12T01:03:17;100269.72;;;18.86;58.53
77161;BME280;66135;0.000;0.000;2023-04-12T01:06:12;100264.28;;;18.86;58.41
77161;BME280;66135;0.000;0.000;2023-04-12T01:08:49;100259.06;;;18.85;58.43
77161;BME280;66135;0.000;0.000;2023-04-12T01:13:53;100242.31;;;18.81;58.61
77161;BME280;66135;0.000;0.000;2023-04-12T01:16:41;100242.31;;;18.81;58.58
77161;BME280;66135;0.000;0.000;2023-04-12T01:22:44;100209.09;;;18.79;58.54
77161;BME280;66135;0.000;0.000;2023-04-12T01:28:04;100192.00;;;18.79;58.54
77161;BME280;66135;0.000;0.000;2023-04-12T01:30:31;100193.88;;;18.78;58.48
77161;BME280;66135;0.000;0.000;2023-04-12T01:32:59;100177.78;;;18.77;58.12
77161;BME280;66135;0.000;0.000;2023-04-12T01:35:29;100179.66;;;18.76;58.41
77161;BME280;66135;0.000;0.000;2023-04-12T01:37:56;100167.13;;;18.75;58.46
77161;BME280;66135;0.000;0.000;2023-04-12T01:40:22;100154.00;;;18.79;58.58
77161;BME280;66135;0.000;0.000;2023-04-12T01:42:48;100153.56;;;18.75;58.67
77161;BME280;66135;0.000;0.000;2023-04-12T01:45:13;100136.44;;;18.75;58.57
77161;BME280;66135;0.000;0.000;2023-04-12T01:47:39;100137.28;;;18.75;58.31
77161;BME280;66135;0.000;0.000;2023-04-12T01:52:48;100125.34;;;18.70;58.63
77161;BME280;66135;0.000;0.000;2023-04-12T01:55:20;100125.97;;;18.72;58.51
77161;BME280;66135;0.000;0.000;2023-04-12T01:57:46;100120.34;;;18.73;58.68
77161;BME280;66135;0.000;0.000;2023-04-12T02:00:14;100107.19;;;18.70;58.47
77161;BME280;66135;0.000;0.000;2023-04-12T02:02:41;100108.84;;;18.71;58.64
77161;BME280;66135;0.000;0.000;2023-04-12T02:05:08;100094.28;;;18.72;58.61
77161;BME280;66135;0.000;0.000;2023-04-12T02:07:35;100081.94;;;18.70;58.53
77161;BME280;66135;0.000;0.000;2023-04-12T02:10:01;100085.69;;;18.69;58.45
77161;BME280;66135;0.000;0.000;2023-04-12T02:12:27;100081.28;;;18.68;58.75
77161;BME280;66135;0.000;0.000;2023-04-12T02:14:52;100074.19;;;18.67;58.65
77161;BME280;66135;0.000;0.000;2023-04-12T02:17:18;100064.16;;;18.67;58.43
77161;BME280;66135;0.000;0.000;2023-04-12T02:19:44;100058.72;;;18.67;58.74
77161;BME280;66135;0.000;0.000;2023-04-12T02:22:09;100050.78;;;18.66;58.63
77161;BME280;66135;0.000;0.000;2023-04-12T02:24:35;100042.66;;;18.66;58.49
77161;BME280;66135;0.000;0.000;2023-04-12T02:27:00;100029.50;;;18.63;58.83
77161;BME280;66135;0.000;0.000;2023-04-12T02:29:26;100023.63;;;18.59;58.79
77161;BME280;66135;0.000;0.000;2023-04-12T02:31:51;100018.84;;;18.61;58.56
77161;BME280;66135;0.000;0.000;2023-04-12T02:34:17;100013.63;;;18.60;58.47
77161;BME280;66135;0.000;0.000;2023-04-12T02:36:46;100011.94;;;18.59;58.67
77161;BME280;66135;0.000;0.000;2023-04-12T02:39:12;100001.31;;;18.64;58.69
77161;BME280;66135;0.000;0.000;2023-04-12T02:41:38;99994.22;;;18.63;58.49
77161;BME280;66135;0.000;0.000;2023-04-12T02:44:03;99992.94;;;18.59;58.36
77161;BME280;66135;0.000;0.000;2023-04-12T02:46:28;99986.50;;;18.60;58.61
77161;BME280;66135;0.000;0.000;2023-04-12T02:48:54;99983.56;;;18.61;58.63
77161;BME280;66135;0.000;0.000;2023-04-12T02:51:20;99973.13;;;18.58;58.74
77161;BME280;66135;0.000;0.000;2023-04-12T02:53:45;99966.88;;;18.58;58.96
77161;BME280;66135;0.000;0.000;2023-04-12T02:56:10;99967.06;;;18.56;58.71
77161;BME280;66135;0.000;0.000;2023-04-12T02:58:37;99946.00;;;18.58;58.58
77161;BME280;66135;0.000;0.000;2023-04-12T03:01:03;99936.19;;;18.57;58.70
77161;BME280;66135;0.000;0.000;2023-04-12T03:03:33;99930.09;;;18.55;58.68
77161;BME280;66135;0.000;0.000;2023-04-12T03:05:58;99929.91;;;18.57;58.62
77161;BME280;66135;0.000;0.000;2023-04-12T03:08:24;99922.63;;;18.57;58.72
77161;BME280;66135;0.000;0.000;2023-04-12T03:10:50;99905.50;;;18.57;58.68
77161;BME280;66135;0.000;0.000;2023-04-12T03:13:15;99904.69;;;18.56;58.73
77161;BME280;66135;0.000;0.000;2023-04-12T03:15:41;99892.53;;;18.52;58.43
77161;BME280;66135;0.000;0.000;2023-04-12T03:18:08;99896.91;;;18.53;58.64
77161;BME280;66135;0.000;0.000;2023-04-12T03:20:33;99895.06;;;18.54;58.64
77161;BME280;66135;0.000;0.000;2023-04-12T03:22:59;99891.69;;;18.52;58.74
77161;BME280;66135;0.000;0.000;2023-04-12T03:25:24;99890.03;;;18.51;58.68
77161;BME280;66135;0.000;0.000;2023-04-12T03:27:49;99892.97;;;18.49;58.66
77161;BME280;66135;0.000;0.000;2023-04-12T03:30:15;99880.41;;;18.48;58.58
77161;BME280;66135;0.000;0.000;2023-04-12T03:32:41;99865.84;;;18.49;58.58
77161;BME280;66135;0.000;0.000;2023-04-12T03:35:07;99861.44;;;18.48;58.80
77161;BME280;66135;0.000;0.000;2023-04-12T03:37:33;99850.78;;;18.47;58.42
77161;BME280;66135;0.000;0.000;2023-04-12T03:39:59;99857.06;;;18.47;58.73
77161;BME280;66135;0.000;0.000;2023-04-12T03:42:26;99860.63;;;18.48;58.77
77161;BME280;66135;0.000;0.000;2023-04-12T03:44:52;99860.41;;;18.49;58.68
77161;BME280;66135;0.000;0.000;2023-04-12T03:47:18;99847.22;;;18.46;58.49
77161;BME280;66135;0.000;0.000;2023-04-12T03:49:46;99844.94;;;18.43;58.99
77161;BME280;66135;0.000;0.000;2023-04-12T03:52:12;99834.94;;;18.44;58.68
77161;BME280;66135;0.000;0.000;2023-04-12T03:54:37;99842.41;;;18.42;58.75
77161;BME280;66135;0.000;0.000;2023-04-12T03:57:03;99822.41;;;18.43;58.76
77161;BME280;66135;0.000;0.000;2023-04-12T03:59:28;99818.22;;;18.40;58.82
77161;BME280;66135;0.000;0.000;2023-04-12T04:01:55;99817.16;;;18.41;58.80
77161;BME280;66135;0.000;0.000;2023-04-12T04:04:22;99819.88;;;18.41;58.68
77161;BME280;66135;0.000;0.000;2023-04-12T04:06:47;99819.25;;;18.39;58.96
77161;BME280;66135;0.000;0.000;2023-04-12T04:09:13;99809.22;;;18.40;58.55
77161;BME280;66135;0.000;0.000;2023-04-12T04:11:39;99806.50;;;18.40;58.75
77161;BME280;66135;0.000;0.000;2023-04-12T04:14:04;99797.56;;;18.39;58.90
77161;BME280;66135;0.000;0.000;2023-04-12T04:16:30;99805.69;;;18.39;58.78
77161;BME280;66135;0.000;0.000;2023-04-12T04:18:55;99798.56;;;18.38;58.71
77161;BME280;66135;0.000;0.000;2023-04-12T04:21:21;99777.09;;;18.37;58.58
77161;BME280;66135;0.000;0.000;2023-04-12T04:23:46;99777.94;;;18.37;58.76
77161;BME280;66135;0.000;0.000;2023-04-12T04:26:13;99777.94;;;18.37;58.82
77161;BME280;66135;0.000;0.000;2023-04-12T04:28:41;99780.00;;;18.35;59.09
77161;BME280;66135;0.000;0.000;2023-04-12T04:31:10;99777.09;;;18.37;59.00
77161;BME280;66135;0.000;0.000;2023-04-12T04:33:36;99766.25;;;18.37;58.69
77161;BME280;66135;0.000;0.000;2023-04-12T04:36:03;99761.03;;;18.35;58.66
77161;BME280;66135;0.000;0.000;2023-04-12T04:38:29;99753.53;;;18.37;58.66
77161;BME280;66135;0.000;0.000;2023-04-12T04:40:57;99755.41;;;18.37;58.92
77161;BME280;66135;0.000;0.000;2023-04-12T04:43:24;99754.53;;;18.36;58.85
77161;BME280;66135;0.000;0.000;2023-04-12T04:45:53;99748.31;;;18.36;59.14
77161;BME280;66135;0.000;0.000;2023-04-12T04:48:19;99750.19;;;18.35;58.92
77161;BME280;66135;0.000;0.000;2023-04-12T04:50:45;99747.88;;;18.32;58.95
77161;BME280;66135;0.000;0.000;2023-04-12T04:53:11;99739.75;;;18.32;59.11
77161;BME280;66135;0.000;0.000;2023-04-12T04:55:37;99743.47;;;18.31;59.14
77161;BME280;66135;0.000;0.000;2023-04-12T04:58:04;99745.16;;;18.32;58.95
77161;BME280;66135;0.000;0.000;2023-04-12T05:00:30;99740.56;;;18.33;59.00
77161;BME280;66135;0.000;0.000;2023-04-12T05:02:55;99738.91;;;18.32;59.13
77161;BME280;66135;0.000;0.000;2023-04-12T05:05:21;99738.06;;;18.31;59.07
77161;BME280;66135;0.000;0.000;2023-04-12T05:07:50;99732.00;;;18.29;59.19
77161;BME280;66135;0.000;0.000;2023-04-12T05:10:15;99737.22;;;18.31;59.10
77161;BME280;66135;0.000;0.000;2023-04-12T05:12:40;99726.56;;;18.29;59.06
77161;BME280;66135;0.000;0.000;2023-04-12T05:15:06;99725.13;;;18.27;59.14
77161;BME280;66135;0.000;0.000;2023-04-12T05:17:32;99722.19;;;18.28;59.23
77161;BME280;66135;0.000;0.000;2023-04-12T05:19:58;99720.94;;;18.31;59.17
77161;BME280;66135;0.000;0.000;2023-04-12T05:22:24;99718.22;;;18.31;58.94
77161;BME280;66135;0.000;0.000;2023-04-12T05:24:49;99722.84;;;18.30;59.11
77161;BME280;66135;0.000;0.000;2023-04-12T05:27:15;99713.44;;;18.26;59.15
77161;BME280;66135;0.000;0.000;2023-04-12T05:29:44;99709.88;;;18.26;59.40
77161;BME280;66135;0.000;0.000;2023-04-12T05:32:10;99711.78;;;18.25;59.19
77161;BME280;66135;0.000;0.000;2023-04-12T05:34:35;99697.59;;;18.23;59.07
77161;BME280;66135;0.000;0.000;2023-04-12T05:37:02;99700.94;;;18.25;59.14
77161;BME280;66135;0.000;0.000;2023-04-12T05:39:28;99706.34;;;18.25;59.07
77161;BME280;66135;0.000;0.000;2023-04-12T05:41:54;99714.66;;;18.24;59.38
77161;BME280;66135;0.000;0.000;2023-04-12T05:44:19;99699.66;;;18.21;59.10
77161;BME280;66135;0.000;0.000;2023-04-12T05:46:45;99699.88;;;18.20;59.33
77161;BME280;66135;0.000;0.000;2023-04-12T05:49:11;99693.81;;;18.18;59.23
77161;BME280;66135;0.000;0.000;2023-04-12T05:51:36;99702.38;;;18.21;59.43
77161;BME280;66135;0.000;0.000;2023-04-12T05:54:02;99699.44;;;18.23;59.53
77161;BME280;66135;0.000;0.000;2023-04-12T05:56:30;99698.22;;;18.25;59.48
77161;BME280;66135;0.000;0.000;2023-04-12T05:58:56;99700.94;;;18.25;59.80
77161;BME280;66135;0.000;0.000;2023-04-12T06:01:22;99708.44;;;18.23;59.88
77161;BME280;66135;0.000;0.000;2023-04-12T06:03:49;99708.00;;;18.26;59.91
77161;BME280;66135;0.000;0.000;2023-04-12T06:06:15;99701.75;;;18.26;59.79
77161;BME280;66135;0.000;0.000;2023-04-12T06:08:40;99703.03;;;18.30;59.61
77161;BME280;66135;0.000;0.000;2023-04-12T06:11:06;99700.50;;;18.28;59.89
77161;BME280;66135;0.000;0.000;2023-04-12T06:13:32;99713.25;;;18.34;60.12
77161;BME280;66135;0.000;0.000;2023-04-12T06:15:58;99696.16;;;18.34;60.44
77161;BME280;66135;0.000;0.000;2023-04-12T06:18:23;99693.25;;;18.35;60.25
77161;BME280;66135;0.000;0.000;2023-04-12T06:20:48;99686.13;;;18.34;60.15
77161;BME280;66135;0.000;0.000;2023-04-12T06:23:14;99689.03;;;18.33;60.17
77161;BME280;66135;0.000;0.000;2023-04-12T06:25:39;99689.25;;;18.31;60.27
77161;BME280;66135;0.000;0.000;2023-04-12T06:28:05;99692.38;;;18.28;60.25
77161;BME280;66135;0.000;0.000;2023-04-12T06:30:30;99678.19;;;18.26;60.44
77161;BME280;66135;0.000;0.000;2023-04-12T06:32:56;99685.28;;;18.27;60.28
77161;BME280;66135;0.000;0.000;2023-04-12T06:35:22;99677.56;;;18.24;60.41
77161;BME280;66135;0.000;0.000;2023-04-12T06:37:48;99677.56;;;18.24;60.73
77161;BME280;66135;0.000;0.000;2023-04-12T06:40:13;99680.91;;;18.26;60.63
77161;BME280;66135;0.000;0.000;2023-04-12T06:42:39;99670.69;;;18.22;60.40
77161;BME280;66135;0.000;0.000;2023-04-12T06:45:05;99675.25;;;18.21;60.63
77161;BME280;66135;0.000;0.000;2023-04-12T06:47:30;99664.63;;;18.20;60.59
77161;BME280;66135;0.000;0.000;2023-04-12T06:49:56;99662.94;;;18.19;60.74
77161;BME280;66135;0.000;0.000;2023-04-12T06:52:25;99672.13;;;18.18;60.52
77161;BME280;66135;0.000;0.000;2023-04-12T06:54:51;99671.47;;;18.16;60.47
77161;BME280;66135;0.000;0.000;2023-04-12T06:57:16;99673.34;;;18.15;60.22
77161;BME280;66135;0.000;0.000;2023-04-12T06:59:41;99660.84;;;18.14;60.21
77161;BME280;66135;0.000;0.000;2023-04-12T07:02:07;99664.41;;;18.15;60.37
77161;BME280;66135;0.000;0.000;2023-04-12T07:04:32;99672.75;;;18.13;60.23
77161;BME280;66135;0.000;0.000;2023-04-12T07:06:58;99671.06;;;18.12;60.22
77161;BME280;66135;0.000;0.000;2023-04-12T07:09:23;99666.47;;;18.13;60.37
77161;BME280;66135;0.000;0.000;2023-04-12T07:11:49;99669.19;;;18.13;59.98
77161;BME280;66135;0.000;0.000;2023-04-12T07:14:14;99672.09;;;18.11;60.02
77161;BME280;66135;0.000;0.000;2023-04-12T07:16:42;99678.53;;;18.10;60.09
77161;BME280;66135;0.000;0.000;2023-04-12T07:19:07;99676.47;;;18.12;60.17
77161;BME280;66135;0.000;0.000;2023-04-12T07:21:33;99675.03;;;18.10;60.03
77161;BME280;66135;0.000;0.000;2023-04-12T07:23:58;99671.88;;;18.06;59.92
77161;BME280;66135;0.000;0.000;2023-04-12T07:26:24;99678.53;;;18.10;60.09
77161;BME280;66135;0.000;0.000;2023-04-12T07:28:50;99671.25;;;18.11;59.88
77161;BME280;66135;0.000;0.000;2023-04-12T07:31:16;99680.03;;;18.13;59.75
77161;BME280;66135;0.000;0.000;2023-04-12T07:33:41;99677.72;;;18.10;60.03
77161;BME280;66135;0.000;0.000;2023-04-12T07:36:07;99688.56;;;18.10;60.17
77161;BME280;66135;0.000;0.000;2023-04-12T07:38:32;99677.91;;;18.08;60.63
77161;BME280;66135;0.000;0.000;2023-04-12T07:40:58;99676.25;;;18.07;60.70
77161;BME280;66135;0.000;0.000;2023-04-12T07:43:23;99680.44;;;18.10;61.63
77161;BME280;66135;0.000;0.000;2023-04-12T07:45:49;99663.13;;;18.11;61.62
77161;BME280;66135;0.000;0.000;2023-04-12T07:48:14;99657.91;;;18.09;61.14
77161;BME280;66135;0.000;0.000;2023-04-12T07:50:40;99651.84;;;18.07;61.28
77161;BME280;66135;0.000;0.000;2023-04-12T07:53:26;99649.78;;;18.03;61.44
77161;BME280;66135;0.000;0.000;2023-04-12T07:55:52;99651.66;;;18.09;61.50
77161;BME280;66135;0.000;0.000;2023-04-12T07:58:19;99657.06;;;18.02;61.53
77161;BME280;66135;0.000;0.000;2023-04-12T08:00:45;99669.16;;;18.06;61.74
77161;BME280;66135;0.000;0.000;2023-04-12T08:03:12;99669.16;;;18.06;62.24
77161;BME280;66135;0.000;0.000;2023-04-12T08:05:38;99674.19;;;18.09;61.57
77161;BME280;66135;0.000;0.000;2023-04-12T08:08:03;99671.47;;;18.09;61.72
77161;BME280;66135;0.000;0.000;2023-04-12T08:10:30;99672.75;;;18.13;61.56
77161;BME280;66135;0.000;0.000;2023-04-12T08:12:56;99680.03;;;18.13;61.77
77161;BME280;66135;0.000;0.000;2023-04-12T08:15:21;99678.75;;;18.15;61.68
77161;BME280;66135;0.000;0.000;2023-04-12T08:17:47;99680.66;;;18.15;61.95
77161;BME280;66135;0.000;0.000;2023-04-12T08:20:12;99676.06;;;18.15;62.39
77161;BME280;66135;0.000;0.000;2023-04-12T08:22:40;99692.13;;;18.17;62.33
77161;BME280;66135;0.000;0.000;2023-04-12T08:25:06;99689.41;;;18.17;62.63
77161;BME280;66135;0.000;0.000;2023-04-12T08:27:32;99685.88;;;18.16;62.23
77161;BME280;66135;0.000;0.000;2023-04-12T08:29:58;99683.38;;;18.15;62.31
77161;BME280;66135;0.000;0.000;2023-04-12T08:32:24;99675.84;;;18.10;62.52
77161;BME280;66135;0.000;0.000;2023-04-12T08:34:49;99690.03;;;18.19;62.98
77161;BME280;66135;0.000;0.000;2023-04-12T08:37:15;99701.31;;;18.22;62.82
77161;BME280;66135;0.000;0.000;2023-04-12T08:39:42;99688.81;;;18.21;62.93
77161;BME280;66135;0.000;0.000;2023-04-12T08:42:07;99684.22;;;18.22;63.16
77161;BME280;66135;0.000;0.000;2023-04-12T08:44:35;99683.19;;;18.23;63.22
77161;BME280;66135;0.000;0.000;2023-04-12T08:47:05;99678.41;;;18.25;63.17
77161;BME280;66135;0.000;0.000;2023-04-12T08:49:32;99671.09;;;18.25;63.29
77161;BME280;66135;0.000;0.000;2023-04-12T08:52:07;99668.41;;;18.25;63.32
77161;BME280;66135;0.000;0.000;2023-04-12T08:54:33;99667.13;;;18.28;63.21
77161;BME280;66135;0.000;0.000;2023-04-12T08:57:01;99664.63;;;18.26;63.02
77161;BME280;66135;0.000;0.000;2023-04-12T08:59:28;99669.22;;;18.26;63.27
77161;BME280;66135;0.000;0.000;2023-04-12T09:01:54;99661.28;;;18.24;63.21
77161;BME280;66135;0.000;0.000;2023-04-12T09:04:20;99669.41;;;18.24;63.25
77161;BME280;66135;0.000;0.000;2023-04-12T09:06:46;99679.25;;;18.25;63.29
77161;BME280;66135;0.000;0.000;2023-04-12T09:09:11;99677.34;;;18.26;63.18
77161;BME280;66135;0.000;0.000;2023-04-12T09:11:37;99666.50;;;18.26;62.98
77161;BME280;66135;0.000;0.000;2023-04-12T09:14:02;99662.13;;;18.25;63.18
77161;BME280;66135;0.000;0.000;2023-04-12T09:18:59;99649.16;;;18.20;63.43
77161;BME280;66135;0.000;0.000;2023-04-12T09:21:26;99656.72;;;18.25;62.78
77161;BME280;66135;0.000;0.000;2023-04-12T09:26:34;99642.09;;;18.26;63.46
77161;BME280;66135;0.000;0.000;2023-04-12T09:29:00;99643.78;;;18.27;63.35
77161;BME280;66135;0.000;0.000;2023-04-12T09:31:26;99649.22;;;18.27;63.18
77161;BME280;66135;0.000;0.000;2023-04-12T09:33:51;99649.22;;;18.27;63.52
77161;BME280;66135;0.000;0.000;2023-04-12T09:36:17;99655.44;;;18.27;63.38
77161;BME280;66135;0.000;0.000;2023-04-12T09:38:59;99656.50;;;18.26;63.10
77161;BME280;66135;0.000;0.000;2023-04-12T09:41:25;99649.41;;;18.25;63.31
77161;BME280;66135;0.000;0.000;2023-04-12T09:43:53;99647.53;;;18.26;63.30
77161;BME280;66135;0.000;0.000;2023-04-12T09:46:18;99650.44;;;18.24;63.61
77161;BME280;66135;0.000;0.000;2023-04-12T09:48:54;99645.03;;;18.24;63.61
77161;BME280;66135;0.000;0.000;2023-04-12T09:51:28;99641.47;;;18.24;63.64
77161;BME280;66135;0.000;0.000;2023-04-12T09:53:57;99634.19;;;18.24;63.49
77161;BME280;66135;0.000;0.000;2023-04-12T09:56:30;99637.72;;;18.25;63.64
77161;BME280;66135;0.000;0.000;2023-04-12T09:59:01;99633.97;;;18.26;63.25
77161;BME280;66135;0.000;0.000;2023-04-12T10:01:28;99627.75;;;18.25;63.23
77161;BME280;66135;0.000;0.000;2023-04-12T10:03:57;99614.34;;;18.24;63.24
77161;BME280;66135;0.000;0.000;2023-04-12T10:06:24;99618.97;;;18.23;63.07
77161;BME280;66135;0.000;0.000;2023-04-12T10:08:51;99627.09;;;18.23;63.18
77161;BME280;66135;0.000;0.000;2023-04-12T10:11:16;99627.31;;;18.22;63.30
77161;BME280;66135;0.000;0.000;2023-04-12T10:13:43;99641.25;;;18.19;63.24
77161;BME280;66135;0.000;0.000;2023-04-12T10:16:09;99647.09;;;18.16;62.97
77161;BME280;66135;0.000;0.000;2023-04-12T10:18:36;99650.00;;;18.14;62.71
77161;BME280;66135;0.000;0.000;2023-04-12T10:21:03;99637.06;;;18.10;62.18
77161;BME280;66135;0.000;0.000;2023-04-12T10:23:31;99631.84;;;18.08;61.76
77161;BME280;66135;0.000;0.000;2023-04-12T10:25:57;99630.19;;;18.14;62.08
77161;BME280;66135;0.000;0.000;2023-04-12T10:28:23;99629.38;;;18.20;62.53
77161;BME280;66135;0.000;0.000;2023-04-12T10:30:48;99637.09;;;18.23;62.53
77161;BME280;66135;0.000;0.000;2023-04-12T10:33:17;99638.75;;;18.24;62.64
77161;BME280;66135;0.000;0.000;2023-04-12T10:38:18;99639.59;;;18.24;62.92
77161;BME280;66135;0.000;0.000;2023-04-12T10:41:13;99639.81;;;18.23;63.18
77161;BME280;66135;0.000;0.000;2023-04-12T10:43:40;99654.22;;;18.23;63.08
77161;BME280;66135;0.000;0.000;2023-04-12T10:46:06;99650.44;;;18.24;63.33
77161;BME280;66135;0.000;0.000;2023-04-12T10:48:36;99657.72;;;18.24;63.64
77161;BME280;66135;0.000;0.000;2023-04-12T10:51:20;99654.63;;;18.27;63.37
77161;BME280;66135;0.000;0.000;2023-04-12T10:53:50;99658.16;;;18.27;63.37
77161;BME280;66135;0.000;0.000;2023-04-12T10:59:00;99667.34;;;18.26;63.75
77161;BME280;66135;0.000;0.000;2023-04-12T11:01:26;99663.78;;;18.26;63.45
77161;BME280;66135;0.000;0.000;2023-04-12T11:04:11;99668.41;;;18.25;63.47
77161;BME280;66135;0.000;0.000;2023-04-12T11:09:26;99671.28;;;18.24;63.11
77161;BME280;66135;0.000;0.000;2023-04-12T11:11:56;99674.84;;;18.24;63.32
77161;BME280;66135;0.000;0.000;2023-04-12T11:14:34;99680.25;;;18.24;63.29
77161;BME280;66135;0.000;0.000;2023-04-12T11:22:13;99691.53;;;18.21;63.95
77161;BME280;66135;0.000;0.000;2023-04-12T11:24:46;99702.78;;;18.18;63.64
77161;BME280;66135;0.000;0.000;2023-04-12T11:27:13;99699.00;;;18.19;63.45
77161;BME280;66135;0.000;0.000;2023-04-12T11:29:40;99697.97;;;18.20;63.40
77161;BME280;66135;0.000;0.000;2023-04-12T11:32:10;99693.81;;;18.18;63.60
77161;BME280;66135;0.000;0.000;2023-04-12T11:34:37;99696.50;;;18.18;63.49
77161;BME280;66135;0.000;0.000;2023-04-12T11:37:04;99682.13;;;18.17;63.54
77161;BME280;66135;0.000;0.000;2023-04-12T11:39:33;99684.81;;;18.17;63.70
77161;BME280;66135;0.000;0.000;2023-04-12T11:41:59;99690.25;;;18.17;63.36
77161;BME280;66135;0.000;0.000;2023-04-12T11:44:26;99684.41;;;18.20;63.32
77161;BME280;66135;0.000;0.000;2023-04-12T11:46:52;99677.13;;;18.21;63.45
77161;BME280;66135;0.000;0.000;2023-04-12T11:49:21;99674.41;;;18.21;63.30
77161;BME280;66135;0.000;0.000;2023-04-12T11:51:47;99660.84;;;18.21;63.53
77161;BME280;66135;0.000;0.000;2023-04-12T11:54:13;99664.41;;;18.21;63.46
77161;BME280;66135;0.000;0.000;2023-04-12T11:56:39;99671.69;;;18.21;63.69
77161;BME280;66135;0.000;0.000;2023-04-12T11:59:06;99685.25;;;18.21;63.77
77161;BME280;66135;0.000;0.000;2023-04-12T12:01:33;99679.19;;;18.19;63.69
77161;BME280;66135;0.000;0.000;2023-04-12T12:04:00;99678.81;;;18.22;63.32
77161;BME280;66135;0.000;0.000;2023-04-12T12:06:26;99687.75;;;18.22;63.63
77161;BME280;66135;0.000;0.000;2023-04-12T12:08:52;99677.97;;;18.21;63.63
77161;BME280;66135;0.000;0.000;2023-04-12T12:11:21;99678.81;;;18.22;63.51
77161;BME280;66135;0.000;0.000;2023-04-12T12:16:14;99688.81;;;18.21;63.34
77161;BME280;66135;0.000;0.000;2023-04-12T12:18:45;99698.16;;;18.19;63.78
77161;BME280;66135;0.000;0.000;2023-04-12T12:21:12;99722.56;;;18.19;63.51
77161;BME280;66135;0.000;0.000;2023-04-12T12:23:38;99745.94;;;18.20;63.44
77161;BME280;66135;0.000;0.000;2023-04-12T12:26:06;99744.25;;;18.19;63.78
77161;BME280;66135;0.000;0.000;2023-04-12T12:28:38;99741.75;;;18.17;63.68
77161;BME280;66135;0.000;0.000;2023-04-12T12:31:09;99724.84;;;18.15;63.76
77161;BME280;66135;0.000;0.000;2023-04-12T12:33:38;99724.63;;;18.17;63.56
77161;BME280;66135;0.000;0.000;2023-04-12T12:36:05;99726.13;;;18.19;63.68
77161;BME280;66135;0.000;0.000;2023-04-12T12:38:35;99725.06;;;18.20;63.42
77161;BME280;66135;0.000;0.000;2023-04-12T12:41:17;99716.56;;;18.23;63.80
77161;BME280;66135;0.000;0.000;2023-04-12T12:43:47;99715.31;;;18.26;63.80
77161;BME280;66135;0.000;0.000;2023-04-12T12:46:13;99708.00;;;18.26;63.69
77161;BME280;66135;0.000;0.000;2023-04-12T12:48:42;99694.66;;;18.25;64.17
77161;BME280;66135;0.000;0.000;2023-04-12T12:51:08;99706.34;;;18.25;64.44
77161;BME280;66135;0.000;0.000;2023-04-12T12:53:35;99705.31;;;18.26;64.35
77161;BME280;66135;0.000;0.000;2023-04-12T12:56:00;99704.25;;;18.27;64.45
77161;BME280;66135;0.000;0.000;2023-04-12T12:58:25;99708.00;;;18.26;64.44
77161;BME280;66135;0.000;0.000;2023-04-12T13:00:52;99710.72;;;18.26;64.91
77161;BME280;66135;0.000;0.000;2023-04-12T13:03:17;99710.09;;;18.24;64.33
77161;BME280;66135;0.000;0.000;2023-04-12T13:05:42;99707.38;;;18.24;64.97
77161;BME280;66135;0.000;0.000;2023-04-12T13:08:08;99703.00;;;18.23;64.58
77161;BME280;66135;0.000;0.000;2023-04-12T13:10:33;99719.25;;;18.23;64.84
77161;BME280;66135;0.000;0.000;2023-04-12T13:12:59;99722.78;;;18.24;65.15
77161;BME280;66135;0.000;0.000;2023-04-12T13:15:25;99725.50;;;18.24;64.62
77161;BME280;66135;0.000;0.000;2023-04-12T13:17:51;99726.75;;;18.21;64.84
77161;BME280;66135;0.000;0.000;2023-04-12T13:20:17;99760.13;;;18.22;64.35
77161;BME280;66135;0.000;0.000;2023-04-12T13:22:42;99763.66;;;18.22;65.00
77161;BME280;66135;0.000;0.000;2023-04-12T13:25:08;99777.22;;;18.22;64.95
77161;BME280;66135;0.000;0.000;2023-04-12T13:27:33;99763.66;;;18.22;65.16
77161;BME280;66135;0.000;0.000;2023-04-12T13:29:59;99742.19;;;18.21;65.30
77161;BME280;66135;0.000;0.000;2023-04-12T13:32:25;99745.75;;;18.21;65.16
77161;BME280;66135;0.000;0.000;2023-04-12T13:34:51;99735.31;;;18.25;65.26
77161;BME280;66135;0.000;0.000;2023-04-12T13:37:17;99721.97;;;18.23;65.56
77161;BME280;66135;0.000;0.000;2023-04-12T13:39:42;99722.19;;;18.22;65.19
77161;BME280;66135;0.000;0.000;2023-04-12T13:42:09;99714.88;;;18.22;65.21